createdAt,value
2023-03-28T00:01:05.452Z,91.33
2023-03-28T00:03:39.769Z,92.40
2023-03-28T00:06:18.678Z,90.52
2023-03-28T00:08:47.646Z,91.48
2023-03-28T00:11:25.369Z,90.02
2023-03-28T00:14:01.073Z,91.13
2023-03-28T00:16:32.801Z,90.93
2023-03-28T00:19:07.016Z,92.00
2023-03-28T00:21:39.825Z,91.51
2023-03-28T00:24:13.823Z,89.75
2023-03-28T00:26:43.009Z,89.12
2023-03-28T00:29:16.615Z,88.92
2023-03-28T00:31:44.290Z,88.73
2023-03-28T00:34:12.445Z,88.91
2023-03-28T00:36:41.700Z,88.58
2023-03-28T00:39:10.481Z,89.76
2023-03-28T00:41:42.373Z,89.47
2023-03-28T00:45:03.954Z,89.83
2023-03-28T00:47:57.895Z,91.32
2023-03-28T00:50:31.588Z,89.22
2023-03-28T00:53:05.162Z,87.13
2023-03-28T00:55:44.974Z,84.81
2023-03-28T00:58:23.272Z,85.23
2023-03-28T01:00:56.666Z,84.35
2023-03-28T01:03:30.536Z,83.66
2023-03-28T01:05:59.341Z,83.70
2023-03-28T01:08:40.842Z,84.50
2023-03-28T01:11:08.588Z,84.04
2023-03-28T01:13:43.141Z,84.24
2023-03-28T01:16:14.270Z,84.39
2023-03-28T01:18:47.129Z,84.52
2023-03-28T01:21:20.349Z,85.03
2023-03-28T01:24:40.588Z,84.76
2023-03-28T01:27:41.986Z,85.20
2023-03-28T01:30:36.896Z,85.82
2023-03-28T01:34:25.018Z,86.14
2023-03-28T01:37:23.791Z,85.81
2023-03-28T01:40:11.439Z,85.05
2023-03-28T01:43:15.945Z,85.31
2023-03-28T01:46:22.412Z,85.15
2023-03-28T01:49:28.965Z,84.87
2023-03-28T01:52:06.955Z,85.09
2023-03-28T01:54:49.237Z,83.51
2023-03-28T01:57:26.506Z,82.88
2023-03-28T02:00:24.549Z,81.82
2023-03-28T02:03:13.962Z,82.25
2023-03-28T02:05:56.554Z,82.06
2023-03-28T02:08:30.108Z,82.72
2023-03-28T02:11:18.263Z,82.20
2023-03-28T02:14:19.233Z,80.47
2023-03-28T02:17:04.641Z,81.48
2023-03-28T02:19:51.721Z,81.47
2023-03-28T02:22:52.965Z,81.64
2023-03-28T02:25:39.204Z,81.85
2023-03-28T02:28:33.605Z,81.08
2023-03-28T02:31:12.010Z,81.77
2023-03-28T02:33:50.089Z,81.00
2023-03-28T02:36:46.152Z,82.45
2023-03-28T02:39:39.371Z,82.18
2023-03-28T02:42:20.787Z,82.49
2023-03-28T02:45:29.664Z,82.49
2023-03-28T02:48:33.029Z,83.02
2023-03-28T02:51:13.444Z,82.38
2023-03-28T02:54:14.083Z,83.74
2023-03-28T02:57:24.327Z,82.38
2023-03-28T03:00:08.177Z,82.15
2023-03-28T03:02:36.055Z,82.07
2023-03-28T03:05:04.040Z,82.81
2023-03-28T03:07:32.923Z,82.58
2023-03-28T03:10:00.871Z,81.62
2023-03-28T03:12:28.387Z,82.33
2023-03-28T03:15:01.143Z,82.38
2023-03-28T03:17:48.009Z,82.25
2023-03-28T03:20:18.972Z,82.24
2023-03-28T03:22:46.710Z,81.29
2023-03-28T03:25:14.764Z,81.54
2023-03-28T03:28:05.956Z,81.50
2023-03-28T03:30:33.654Z,81.60
2023-03-28T03:33:27.164Z,80.88
2023-03-28T03:36:00.851Z,81.85
2023-03-28T03:38:29.150Z,81.57
2023-03-28T03:40:56.738Z,80.93
2023-03-28T03:43:24.850Z,80.81
2023-03-28T03:45:52.548Z,80.55
2023-03-28T03:48:20.045Z,81.39
2023-03-28T03:50:47.547Z,80.58
2023-03-28T03:53:16.841Z,80.41
2023-03-28T03:55:50.933Z,80.65
2023-03-28T03:58:20.457Z,80.65
2023-03-28T04:00:49.399Z,80.73
2023-03-28T04:03:34.354Z,80.58
2023-03-28T04:06:05.309Z,80.11
2023-03-28T04:08:34.448Z,80.15
2023-03-28T04:11:02.860Z,80.58
2023-03-28T04:13:37.817Z,80.57
2023-03-28T04:16:07.523Z,80.16
2023-03-28T04:18:50.561Z,79.43
2023-03-28T04:21:27.700Z,79.81
2023-03-28T04:23:57.074Z,78.91
2023-03-28T04:26:41.742Z,79.25
2023-03-28T04:29:12.631Z,78.90
2023-03-28T04:31:50.283Z,78.44
2023-03-28T04:34:38.902Z,78.72
2023-03-28T04:37:15.400Z,78.76
2023-03-28T04:39:55.802Z,77.58
2023-03-28T04:42:41.963Z,77.79
2023-03-28T04:45:15.006Z,76.09
2023-03-28T04:47:43.976Z,76.41
2023-03-28T04:50:17.527Z,76.52
2023-03-28T04:52:45.647Z,76.33
2023-03-28T04:55:16.235Z,75.08
2023-03-28T04:57:44.679Z,75.74
2023-03-28T05:00:16.914Z,75.79
2023-03-28T05:03:06.047Z,74.82
2023-03-28T05:05:47.823Z,74.96
2023-03-28T05:08:18.612Z,74.32
2023-03-28T05:10:47.301Z,73.63
2023-03-28T05:13:16.829Z,74.50
2023-03-28T05:15:53.468Z,74.08
2023-03-28T05:18:53.134Z,73.46
2023-03-28T05:21:28.616Z,73.89
2023-03-28T05:23:56.878Z,73.80
2023-03-28T05:26:28.823Z,73.40
2023-03-28T05:28:57.029Z,72.88
2023-03-28T05:31:26.209Z,72.90
2023-03-28T05:34:06.802Z,72.37
2023-03-28T05:36:42.860Z,71.63
2023-03-28T05:39:20.560Z,72.24
2023-03-28T05:41:48.101Z,71.71
2023-03-28T05:44:18.782Z,71.41
2023-03-28T05:47:12.245Z,71.71
2023-03-28T05:49:39.746Z,70.40
2023-03-28T05:52:07.300Z,71.03
2023-03-28T05:54:34.977Z,70.61
2023-03-28T05:57:02.549Z,69.63
2023-03-28T05:59:30.146Z,70.02
2023-03-28T06:01:58.520Z,69.84
2023-03-28T06:04:26.353Z,69.96
2023-03-28T06:06:53.846Z,69.73
2023-03-28T06:09:26.389Z,67.11
2023-03-28T06:11:59.671Z,67.12
2023-03-28T06:14:28.388Z,67.02
2023-03-28T06:16:59.770Z,65.91
2023-03-28T06:19:34.660Z,67.42
2023-03-28T06:22:03.037Z,66.01
2023-03-28T06:24:31.445Z,65.09
2023-03-28T06:26:59.866Z,64.87
2023-03-28T06:29:27.418Z,64.19
2023-03-28T06:32:04.359Z,65.65
2023-03-28T06:34:31.808Z,63.14
2023-03-28T06:37:03.137Z,65.10
2023-03-28T06:39:44.503Z,63.99
2023-03-28T06:42:12.221Z,61.85
2023-03-28T06:44:50.677Z,62.63
2023-03-28T06:47:38.366Z,63.09
2023-03-28T06:50:07.818Z,61.91
2023-03-28T06:52:54.666Z,62.43
2023-03-28T06:55:22.886Z,62.64
2023-03-28T06:57:50.422Z,62.39
2023-03-28T07:00:27.390Z,61.74
2023-03-28T07:03:14.855Z,64.38
2023-03-28T07:05:43.883Z,62.12
2023-03-28T07:08:14.135Z,63.24
2023-03-28T07:10:42.668Z,60.20
2023-03-28T07:13:13.621Z,60.19
2023-03-28T07:16:06.843Z,59.67
2023-03-28T07:18:37.261Z,61.24
2023-03-28T07:21:17.773Z,57.79
2023-03-28T07:23:45.859Z,58.37
2023-03-28T07:26:16.834Z,58.12
2023-03-28T07:28:46.273Z,57.04
2023-03-28T07:31:13.856Z,56.79
2023-03-28T07:33:41.460Z,57.02
2023-03-28T07:36:20.131Z,56.79
2023-03-28T07:38:51.720Z,55.91
2023-03-28T07:41:22.642Z,54.81
2023-03-28T07:43:50.803Z,53.86
2023-03-28T07:46:21.018Z,55.02
2023-03-28T07:48:48.687Z,54.99
2023-03-28T07:51:17.726Z,54.72
2023-03-28T07:53:46.118Z,54.90
2023-03-28T07:56:14.206Z,54.79
2023-03-28T07:59:07.901Z,52.18
2023-03-28T08:01:36.007Z,53.38
2023-03-28T08:04:05.316Z,53.98
2023-03-28T08:06:45.660Z,53.46
2023-03-28T08:09:17.046Z,53.69
2023-03-28T08:11:48.881Z,51.95
2023-03-28T08:14:18.867Z,53.09
2023-03-28T08:16:47.181Z,52.94
2023-03-28T08:19:15.722Z,52.06
2023-03-28T08:22:07.800Z,51.36
2023-03-28T08:24:43.833Z,51.21
2023-03-28T08:27:14.271Z,51.36
2023-03-28T08:29:44.478Z,51.86
2023-03-28T08:32:12.486Z,51.66
2023-03-28T08:34:42.961Z,52.03
2023-03-28T08:37:15.768Z,50.79
2023-03-28T08:39:47.430Z,50.86
2023-03-28T08:42:36.487Z,50.86
2023-03-28T08:45:14.127Z,51.87
2023-03-28T08:48:13.125Z,51.01
2023-03-28T08:51:16.503Z,50.09
2023-03-28T08:54:14.658Z,50.53
2023-03-28T08:56:53.340Z,50.74
2023-03-28T08:59:45.147Z,50.55
2023-03-28T09:02:26.936Z,49.83
2023-03-28T09:05:08.189Z,50.20
2023-03-28T09:08:29.103Z,49.47
2023-03-28T09:11:38.831Z,49.80
2023-03-28T09:14:49.031Z,48.42
2023-03-28T09:17:36.138Z,48.55
2023-03-28T09:20:43.306Z,49.21
2023-03-28T09:24:06.172Z,47.96
2023-03-28T09:27:39.015Z,48.62
2023-03-28T09:30:27.628Z,47.04
2023-03-28T09:33:01.146Z,47.40
2023-03-28T09:35:31.544Z,48.09
2023-03-28T09:38:07.041Z,48.32
2023-03-28T09:40:42.724Z,46.74
2023-03-28T09:43:47.169Z,47.48
2023-03-28T09:47:00.592Z,45.52
2023-03-28T09:49:43.867Z,46.30
2023-03-28T09:52:19.148Z,46.14
2023-03-28T09:54:47.723Z,45.97
2023-03-28T09:57:15.582Z,46.27
2023-03-28T09:59:46.193Z,44.87
2023-03-28T10:02:32.509Z,46.05
2023-03-28T10:05:34.770Z,45.43
2023-03-28T10:08:23.240Z,45.03
2023-03-28T10:11:14.732Z,44.58
2023-03-28T10:13:47.419Z,44.97
2023-03-28T10:16:31.650Z,44.65
2023-03-28T10:19:42.193Z,44.59
2023-03-28T10:22:25.618Z,44.74
2023-03-28T10:24:55.400Z,43.94
2023-03-28T10:27:31.972Z,43.86
2023-03-28T10:30:32.064Z,44.41
2023-03-28T10:33:17.900Z,44.39
2023-03-28T10:36:09.952Z,44.26
2023-03-28T10:38:46.658Z,43.76
2023-03-28T10:41:32.646Z,44.07
2023-03-28T10:44:19.400Z,43.62
2023-03-28T10:47:18.941Z,43.15
2023-03-28T10:49:56.353Z,42.18
2023-03-28T10:52:54.793Z,43.03
2023-03-28T10:55:40.667Z,42.67
2023-03-28T10:58:39.980Z,42.61
2023-03-28T11:01:33.465Z,42.45
2023-03-28T11:04:23.462Z,43.01
2023-03-28T11:07:22.579Z,42.33
2023-03-28T11:10:25.144Z,41.71
2023-03-28T11:13:35.008Z,42.61
2023-03-28T11:16:45.131Z,41.34
2023-03-28T11:20:03.972Z,40.78
2023-03-28T11:23:08.558Z,40.92
2023-03-28T11:26:02.703Z,41.39
2023-03-28T11:29:06.136Z,40.31
2023-03-28T11:31:46.799Z,41.67
2023-03-28T11:34:39.245Z,40.21
2023-03-28T11:37:27.953Z,40.11
2023-03-28T11:40:11.679Z,40.37
2023-03-28T11:43:02.236Z,39.65
2023-03-28T11:45:51.876Z,40.18
2023-03-28T11:48:47.124Z,39.74
2023-03-28T11:52:16.654Z,40.29
2023-03-28T11:54:51.282Z,40.76
2023-03-28T11:57:21.768Z,41.34
2023-03-28T12:00:14.866Z,41.50
2023-03-28T12:02:55.682Z,41.10
2023-03-28T12:05:43.773Z,39.81
2023-03-28T12:08:37.475Z,40.40
2023-03-28T12:11:37.028Z,40.34
2023-03-28T12:14:48.031Z,39.50
2023-03-28T12:17:47.100Z,40.79
2023-03-28T12:20:29.274Z,39.90
2023-03-28T12:23:04.536Z,39.51
2023-03-28T12:31:57.676Z,41.82
2023-03-28T12:34:44.300Z,41.65
2023-03-28T12:37:38.196Z,42.02
2023-03-28T13:01:56.680Z,42.38
2023-03-28T13:05:15.362Z,42.02
2023-03-28T13:07:57.775Z,42.89
2023-03-28T13:10:57.631Z,43.07
2023-03-28T13:13:34.296Z,42.69
2023-03-28T13:16:14.242Z,41.34
2023-03-28T13:19:04.528Z,41.76
2023-03-28T13:21:55.910Z,42.13
2023-03-28T13:24:27.177Z,41.86
2023-03-28T13:27:00.120Z,41.65
2023-03-28T13:29:52.018Z,41.93
2023-03-28T13:32:24.407Z,41.61
2023-03-28T13:35:05.469Z,41.65
2023-03-28T13:38:23.032Z,41.61
2023-03-28T13:41:09.563Z,42.39
2023-03-28T13:43:54.498Z,41.48
2023-03-28T13:46:48.040Z,41.30
2023-03-28T13:49:36.506Z,42.98
2023-03-28T13:52:12.578Z,41.05
2023-03-28T13:54:40.057Z,40.43
2023-03-28T13:57:17.773Z,39.96
2023-03-28T13:59:54.559Z,39.44
2023-03-28T14:02:47.144Z,39.19
2023-03-28T14:05:28.055Z,39.56
2023-03-28T14:08:18.744Z,39.43
2023-03-28T14:10:48.017Z,40.33
2023-03-28T14:13:26.107Z,40.30
2023-03-28T14:15:55.475Z,39.91
2023-03-28T14:18:34.462Z,40.51
2023-03-28T14:21:02.831Z,40.28
2023-03-28T14:23:37.266Z,40.16
2023-03-28T14:26:15.328Z,41.07
2023-03-28T14:28:46.077Z,40.77
2023-03-28T14:31:40.474Z,40.42
2023-03-28T14:34:26.524Z,39.33
2023-03-28T14:37:01.318Z,40.06
2023-03-28T14:39:33.136Z,39.51
2023-03-28T14:42:08.509Z,39.83
2023-03-28T14:44:41.594Z,39.54
2023-03-28T14:47:30.130Z,39.87
2023-03-28T14:50:18.173Z,39.67
2023-03-28T14:52:45.947Z,38.93
2023-03-28T14:55:23.924Z,38.01
2023-03-28T14:57:53.702Z,36.69
2023-03-28T15:00:27.606Z,36.03
2023-03-28T15:02:56.228Z,36.19
2023-03-28T15:05:24.607Z,37.44
2023-03-28T15:08:01.349Z,36.94
2023-03-28T15:10:30.814Z,36.74
2023-03-28T15:13:14.062Z,36.28
2023-03-28T15:15:48.093Z,36.69
2023-03-28T15:18:21.346Z,37.55
2023-03-28T15:20:52.651Z,35.58
2023-03-28T15:23:29.363Z,34.38
2023-03-28T15:26:01.228Z,32.82
2023-03-28T15:28:30.691Z,32.50
2023-03-28T15:31:01.349Z,33.35
2023-03-28T15:33:34.581Z,34.12
2023-03-28T15:36:34.845Z,35.74
2023-03-28T15:39:30.432Z,35.85
2023-03-28T15:42:22.699Z,36.18
2023-03-28T15:44:59.173Z,35.54
2023-03-28T15:47:30.897Z,35.05
2023-03-28T15:50:08.962Z,34.81
2023-03-28T15:52:36.969Z,33.59
2023-03-28T15:55:07.138Z,34.24
2023-03-28T15:57:35.498Z,35.56
2023-03-28T16:00:04.398Z,36.41
2023-03-28T16:02:40.836Z,36.51
2023-03-28T16:05:11.002Z,36.33
2023-03-28T16:07:51.535Z,36.83
2023-03-28T16:10:25.264Z,36.80
2023-03-28T16:13:14.618Z,37.81
2023-03-28T16:15:53.914Z,38.62
2023-03-28T16:18:34.486Z,38.00
2023-03-28T16:21:04.420Z,38.58
2023-03-28T16:23:31.917Z,38.39
2023-03-28T16:25:59.705Z,38.31
2023-03-28T16:28:27.457Z,38.81
2023-03-28T16:30:54.990Z,39.34
2023-03-28T16:33:23.585Z,39.27
2023-03-28T16:35:55.043Z,40.05
2023-03-28T16:38:23.410Z,39.63
2023-03-28T16:40:51.342Z,39.34
2023-03-28T16:43:18.894Z,38.99
2023-03-28T16:45:49.993Z,40.06
2023-03-28T16:48:17.798Z,40.16
2023-03-28T16:50:58.666Z,39.30
2023-03-28T16:53:26.326Z,39.11
2023-03-28T16:55:53.940Z,38.81
2023-03-28T16:58:21.686Z,38.53
2023-03-28T17:00:52.073Z,38.83
2023-03-28T17:03:20.575Z,39.12
2023-03-28T17:05:48.463Z,39.92
2023-03-28T17:08:16.211Z,40.34
2023-03-28T17:10:47.327Z,40.20
2023-03-28T17:13:15.618Z,40.24
2023-03-28T17:15:43.355Z,40.08
2023-03-28T17:18:11.556Z,39.31
2023-03-28T17:20:40.670Z,38.83
2023-03-28T17:23:11.208Z,39.55
2023-03-28T17:25:53.903Z,39.75
2023-03-28T17:28:24.785Z,40.26
2023-03-28T17:30:52.561Z,40.10
2023-03-28T17:33:21.045Z,40.50
2023-03-28T17:36:11.997Z,41.54
2023-03-28T17:38:39.653Z,42.03
2023-03-28T17:41:08.332Z,41.62
2023-03-28T17:43:35.936Z,42.73
2023-03-28T17:46:04.335Z,42.57
2023-03-28T17:48:32.287Z,42.29
2023-03-28T17:51:03.452Z,41.62
2023-03-28T17:53:31.166Z,42.36
2023-03-28T17:56:00.966Z,42.50
2023-03-28T17:58:30.903Z,41.92
2023-03-28T18:01:01.230Z,41.84
2023-03-28T18:03:31.452Z,41.89
2023-03-28T18:06:22.368Z,43.02
2023-03-28T18:08:49.880Z,42.52
2023-03-28T18:11:20.414Z,42.15
2023-03-28T18:13:52.668Z,41.44
2023-03-28T18:16:20.422Z,40.01
2023-03-28T18:18:48.064Z,40.54
2023-03-28T18:21:17.352Z,40.74
2023-03-28T18:23:46.228Z,40.26
2023-03-28T18:26:17.021Z,40.10
2023-03-28T18:28:47.557Z,40.44
2023-03-28T18:31:20.182Z,40.96
2023-03-28T18:33:49.435Z,40.59
2023-03-28T18:36:20.435Z,41.01
2023-03-28T18:38:50.036Z,40.18
2023-03-28T18:41:19.726Z,39.51
2023-03-28T18:43:47.393Z,39.71
2023-03-28T18:46:16.430Z,39.49
2023-03-28T18:48:47.681Z,39.78
2023-03-28T18:51:15.882Z,39.41
2023-03-28T18:53:44.065Z,38.51
2023-03-28T18:56:13.671Z,39.21
2023-03-28T18:58:41.509Z,38.96
2023-03-28T19:01:11.537Z,39.82
2023-03-28T19:03:42.464Z,38.86
2023-03-28T19:06:15.319Z,39.50
2023-03-28T19:08:45.220Z,40.25
2023-03-28T19:11:19.578Z,39.83
2023-03-28T19:13:50.536Z,39.97
2023-03-28T19:16:19.453Z,39.89
2023-03-28T19:18:48.118Z,40.26
2023-03-28T19:21:17.833Z,41.77
2023-03-28T19:23:48.903Z,43.01
2023-03-28T19:26:18.325Z,43.91
2023-03-28T19:28:47.433Z,43.96
2023-03-28T19:31:15.607Z,44.72
2023-03-28T19:33:44.974Z,45.50
2023-03-28T19:36:12.748Z,44.73
2023-03-28T19:38:41.027Z,44.89
2023-03-28T19:41:19.218Z,44.71
2023-03-28T19:43:48.763Z,43.83
2023-03-28T19:46:24.383Z,43.12
2023-03-28T19:48:59.658Z,43.18
2023-03-28T19:51:28.646Z,44.21
2023-03-28T19:53:57.175Z,44.33
2023-03-28T19:56:24.951Z,45.33
2023-03-28T19:58:54.826Z,45.43
2023-03-28T20:01:22.413Z,45.35
2023-03-28T20:03:53.115Z,45.93
2023-03-28T20:06:22.992Z,46.72
2023-03-28T20:08:51.068Z,46.36
2023-03-28T20:11:19.212Z,47.01
2023-03-28T20:13:46.858Z,46.68
2023-03-28T20:16:14.895Z,45.86
2023-03-28T20:18:42.604Z,47.53
2023-03-28T20:21:13.827Z,47.24
2023-03-28T20:23:41.940Z,46.83
2023-03-28T20:26:16.194Z,47.16
2023-03-28T20:28:47.821Z,48.07
2023-03-28T20:31:16.211Z,46.83
2023-03-28T20:33:44.100Z,48.40
2023-03-28T20:36:12.275Z,47.31
2023-03-28T20:38:41.383Z,46.10
2023-03-28T20:41:13.863Z,45.91
2023-03-28T20:43:47.092Z,47.02
2023-03-28T20:46:20.205Z,45.95
2023-03-28T20:48:56.826Z,46.56
2023-03-28T20:51:26.100Z,47.27
2023-03-28T20:53:59.672Z,46.71
2023-03-28T20:56:30.081Z,46.44
2023-03-28T20:58:59.628Z,47.41
2023-03-28T21:01:30.167Z,48.41
2023-03-28T21:04:00.057Z,48.55
2023-03-28T21:06:36.667Z,48.74
2023-03-28T21:09:10.837Z,49.45
2023-03-28T21:11:39.588Z,50.22
2023-03-28T21:14:10.405Z,50.25
2023-03-28T21:16:38.084Z,50.65
2023-03-28T21:19:06.194Z,51.20
2023-03-28T21:21:36.540Z,51.03
2023-03-28T21:24:05.387Z,51.49
2023-03-28T21:26:33.035Z,52.88
2023-03-28T21:29:00.929Z,52.42
2023-03-28T21:31:30.156Z,51.78
2023-03-28T21:33:59.282Z,52.44
2023-03-28T21:36:28.068Z,52.87
2023-03-28T21:38:58.860Z,52.55
2023-03-28T21:41:29.652Z,53.38
2023-03-28T21:43:57.910Z,52.71
2023-03-28T21:46:28.434Z,53.35
2023-03-28T21:48:56.218Z,53.40
2023-03-28T21:51:23.933Z,52.42
2023-03-28T21:53:52.393Z,53.30
2023-03-28T21:56:20.044Z,53.28
2023-03-28T21:58:47.552Z,53.55
2023-03-28T22:01:18.399Z,54.26
2023-03-28T22:03:47.598Z,54.97
2023-03-28T22:06:17.727Z,55.12
2023-03-28T22:08:51.785Z,55.39
2023-03-28T22:11:27.788Z,55.80
2023-03-28T22:14:04.961Z,55.58
2023-03-28T22:16:38.598Z,56.03
2023-03-28T22:19:11.373Z,55.53
2023-03-28T22:21:38.869Z,55.28
2023-03-28T22:24:13.176Z,55.10
2023-03-28T22:26:44.967Z,56.49
2023-03-28T22:29:12.704Z,56.13
2023-03-28T22:31:40.600Z,56.97
2023-03-28T22:34:13.080Z,56.33
2023-03-28T22:36:41.088Z,56.37
2023-03-28T22:39:08.543Z,56.77
2023-03-28T22:41:36.258Z,57.19
2023-03-28T22:44:04.162Z,56.71
2023-03-28T22:46:31.802Z,57.20
2023-03-28T22:49:04.581Z,57.95
2023-03-28T22:51:32.028Z,57.97
2023-03-28T22:54:01.905Z,57.29
2023-03-28T22:56:29.652Z,57.85
2023-03-28T22:59:01.304Z,57.28
2023-03-28T23:01:29.178Z,57.77
2023-03-28T23:03:57.069Z,57.95
2023-03-28T23:06:24.612Z,58.27
2023-03-28T23:08:52.204Z,57.41
2023-03-28T23:11:22.713Z,58.64
2023-03-28T23:13:50.604Z,57.84
2023-03-28T23:16:18.455Z,57.71
2023-03-28T23:18:45.964Z,57.79
2023-03-28T23:21:13.564Z,57.98
2023-03-28T23:23:42.342Z,58.12
2023-03-28T23:26:09.884Z,58.47
2023-03-28T23:28:37.317Z,58.61
2023-03-28T23:31:07.134Z,58.21
2023-03-28T23:33:34.729Z,58.20
2023-03-28T23:36:02.223Z,58.76
2023-03-28T23:38:29.742Z,58.96
2023-03-28T23:40:57.266Z,59.30
2023-03-28T23:43:26.244Z,60.21
2023-03-28T23:45:53.816Z,59.40
2023-03-28T23:48:21.275Z,59.22
2023-03-28T23:50:48.740Z,59.69
2023-03-28T23:53:16.668Z,59.77
2023-03-28T23:55:44.137Z,60.10
2023-03-28T23:58:11.614Z,59.60
